sensor_id;sensor_type;location;lat;lon;timestamp;temperature;humidity
77693;SHT31;66984;47.404;18.836;2023-02-28T16:02:30;6.23;51.87
77693;SHT31;66984;47.404;18.836;2023-02-28T16:04:03;6.33;51.46
77693;SHT31;66984;47.404;18.836;2023-02-28T16:07:29;6.48;50.93
77693;SHT31;66984;47.404;18.836;2023-02-28T16:08:32;6.55;51.01
77693;SHT31;66984;47.404;18.836;2023-02-28T16:09:34;6.59;50.78
77693;SHT31;66984;47.404;18.836;2023-02-28T16:10:37;6.67;50.69
77693;SHT31;66984;47.404;18.836;2023-02-28T16:11:44;6.72;51.13
77693;SHT31;66984;47.404;18.836;2023-02-28T16:12:48;6.76;51.30
77693;SHT31;66984;47.404;18.836;2023-02-28T16:13:51;6.81;51.48
77693;SHT31;66984;47.404;18.836;2023-02-28T16:14:56;6.89;51.52
77693;SHT31;66984;47.404;18.836;2023-02-28T16:15:59;6.92;51.56
77693;SHT31;66984;47.404;18.836;2023-02-28T16:17:06;6.92;51.67
77693;SHT31;66984;47.404;18.836;2023-02-28T16:18:12;6.99;51.46
77693;SHT31;66984;47.404;18.836;2023-02-28T16:19:15;6.95;51.60
77693;SHT31;66984;47.404;18.836;2023-02-28T16:20:28;6.99;51.31
77693;SHT31;66984;47.404;18.836;2023-02-28T16:21:31;6.99;51.36
77693;SHT31;66984;47.404;18.836;2023-02-28T16:22:33;6.96;51.43
77693;SHT31;66984;47.404;18.836;2023-02-28T16:23:36;6.97;51.39
77693;SHT31;66984;47.404;18.836;2023-02-28T16:24:39;6.97;51.37
77693;SHT31;66984;47.404;18.836;2023-02-28T16:25:43;6.97;51.40
77693;SHT31;66984;47.404;18.836;2023-02-28T16:26:50;6.93;51.58
77693;SHT31;66984;47.404;18.836;2023-02-28T16:27:55;6.92;51.31
77693;SHT31;66984;47.404;18.836;2023-02-28T16:29:01;6.88;51.62
77693;SHT31;66984;47.404;18.836;2023-02-28T16:30:05;6.81;51.80
77693;SHT31;66984;47.404;18.836;2023-02-28T16:31:09;6.79;51.98
77693;SHT31;66984;47.404;18.836;2023-02-28T16:32:18;6.86;52.11
77693;SHT31;66984;47.404;18.836;2023-02-28T16:33:21;6.86;52.14
77693;SHT31;66984;47.404;18.836;2023-02-28T16:34:24;6.85;52.11
77693;SHT31;66984;47.404;18.836;2023-02-28T16:35:27;6.85;52.09
77693;SHT31;66984;47.404;18.836;2023-02-28T16:36:30;6.81;52.00
77693;SHT31;66984;47.404;18.836;2023-02-28T16:37:33;6.79;52.09
77693;SHT31;66984;47.404;18.836;2023-02-28T16:38:36;6.83;52.15
77693;SHT31;66984;47.404;18.836;2023-02-28T16:39:39;6.86;52.13
77693;SHT31;66984;47.404;18.836;2023-02-28T16:40:41;6.88;52.20
77693;SHT31;66984;47.404;18.836;2023-02-28T16:41:45;6.89;52.10
77693;SHT31;66984;47.404;18.836;2023-02-28T16:42:52;6.89;52.05
77693;SHT31;66984;47.404;18.836;2023-02-28T16:43:56;6.95;52.01
77693;SHT31;66984;47.404;18.836;2023-02-28T16:45:02;6.95;52.03
77693;SHT31;66984;47.404;18.836;2023-02-28T16:46:05;6.93;52.04
77693;SHT31;66984;47.404;18.836;2023-02-28T16:47:10;6.97;52.07
77693;SHT31;66984;47.404;18.836;2023-02-28T16:48:15;6.99;51.94
77693;SHT31;66984;47.404;18.836;2023-02-28T16:49:18;7.00;52.14
77693;SHT31;66984;47.404;18.836;2023-02-28T16:50:27;7.00;52.00
77693;SHT31;66984;47.404;18.836;2023-02-28T16:51:30;7.00;51.90
77693;SHT31;66984;47.404;18.836;2023-02-28T16:52:36;6.96;51.57
77693;SHT31;66984;47.404;18.836;2023-02-28T16:53:38;6.85;51.76
77693;SHT31;66984;47.404;18.836;2023-02-28T16:54:41;6.76;52.00
77693;SHT31;66984;47.404;18.836;2023-02-28T16:55:44;6.71;52.31
77693;SHT31;66984;47.404;18.836;2023-02-28T16:56:48;6.75;52.19
77693;SHT31;66984;47.404;18.836;2023-02-28T16:57:53;6.75;52.30
77693;SHT31;66984;47.404;18.836;2023-02-28T16:59:00;6.69;52.50
77693;SHT31;66984;47.404;18.836;2023-02-28T17:00:05;6.69;52.69
77693;SHT31;66984;47.404;18.836;2023-02-28T17:01:10;6.75;52.65
77693;SHT31;66984;47.404;18.836;2023-02-28T17:02:15;6.81;52.54
77693;SHT31;66984;47.404;18.836;2023-02-28T17:03:23;6.72;52.05
77693;SHT31;66984;47.404;18.836;2023-02-28T17:04:33;6.78;52.20
77693;SHT31;66984;47.404;18.836;2023-02-28T17:05:38;6.78;52.14
77693;SHT31;66984;47.404;18.836;2023-02-28T17:06:41;6.79;52.10
77693;SHT31;66984;47.404;18.836;2023-02-28T17:07:45;6.81;52.13
77693;SHT31;66984;47.404;18.836;2023-02-28T17:08:49;6.82;52.26
77693;SHT31;66984;47.404;18.836;2023-02-28T17:09:52;6.71;52.40
77693;SHT31;66984;47.404;18.836;2023-02-28T17:10:55;6.72;52.33
77693;SHT31;66984;47.404;18.836;2023-02-28T17:11:57;6.69;52.53
77693;SHT31;66984;47.404;18.836;2023-02-28T17:13:01;6.69;52.77
77693;SHT31;66984;47.404;18.836;2023-02-28T17:14:15;6.68;52.81
77693;SHT31;66984;47.404;18.836;2023-02-28T17:15:19;6.72;52.63
77693;SHT31;66984;47.404;18.836;2023-02-28T17:16:31;6.65;52.73
77693;SHT31;66984;47.404;18.836;2023-02-28T17:17:35;6.62;52.64
77693;SHT31;66984;47.404;18.836;2023-02-28T17:18:37;6.61;52.98
77693;SHT31;66984;47.404;18.836;2023-02-28T17:19:41;6.61;53.11
77693;SHT31;66984;47.404;18.836;2023-02-28T17:20:46;6.62;52.88
77693;SHT31;66984;47.404;18.836;2023-02-28T17:21:49;6.61;53.17
77693;SHT31;66984;47.404;18.836;2023-02-28T17:22:53;6.55;53.20
77693;SHT31;66984;47.404;18.836;2023-02-28T17:23:55;6.59;53.20
77693;SHT31;66984;47.404;18.836;2023-02-28T17:24:58;6.55;53.44
77693;SHT31;66984;47.404;18.836;2023-02-28T17:26:01;6.51;53.73
77693;SHT31;66984;47.404;18.836;2023-02-28T17:27:05;6.58;53.60
77693;SHT31;66984;47.404;18.836;2023-02-28T17:28:11;6.56;53.65
77693;SHT31;66984;47.404;18.836;2023-02-28T17:29:20;6.51;53.80
77693;SHT31;66984;47.404;18.836;2023-02-28T17:30:26;6.52;53.59
77693;SHT31;66984;47.404;18.836;2023-02-28T17:31:32;6.51;53.76
77693;SHT31;66984;47.404;18.836;2023-02-28T17:32:42;6.46;53.87
77693;SHT31;66984;47.404;18.836;2023-02-28T17:33:44;6.44;53.90
77693;SHT31;66984;47.404;18.836;2023-02-28T17:34:47;6.46;54.09
77693;SHT31;66984;47.404;18.836;2023-02-28T17:35:50;6.48;54.13
77693;SHT31;66984;47.404;18.836;2023-02-28T17:36:53;6.48;54.21
77693;SHT31;66984;47.404;18.836;2023-02-28T17:37:55;6.54;54.04
77693;SHT31;66984;47.404;18.836;2023-02-28T17:38:58;6.56;54.20
77693;SHT31;66984;47.404;18.836;2023-02-28T17:40:01;6.58;54.21
77693;SHT31;66984;47.404;18.836;2023-02-28T17:41:04;6.55;54.16
77693;SHT31;66984;47.404;18.836;2023-02-28T17:42:07;6.48;54.37
77693;SHT31;66984;47.404;18.836;2023-02-28T17:43:10;6.46;54.50
77693;SHT31;66984;47.404;18.836;2023-02-28T17:44:13;6.49;54.44
77693;SHT31;66984;47.404;18.836;2023-02-28T17:45:15;6.49;54.66
77693;SHT31;66984;47.404;18.836;2023-02-28T17:46:21;6.48;54.76
77693;SHT31;66984;47.404;18.836;2023-02-28T17:47:23;6.46;54.88
77693;SHT31;66984;47.404;18.836;2023-02-28T17:48:26;6.45;54.90
77693;SHT31;66984;47.404;18.836;2023-02-28T17:49:32;6.44;54.99
77693;SHT31;66984;47.404;18.836;2023-02-28T17:50:35;6.44;54.98
77693;SHT31;66984;47.404;18.836;2023-02-28T17:51:38;6.41;55.05
77693;SHT31;66984;47.404;18.836;2023-02-28T17:52:41;6.40;55.13
77693;SHT31;66984;47.404;18.836;2023-02-28T17:53:44;6.41;55.14
77693;SHT31;66984;47.404;18.836;2023-02-28T17:54:46;6.41;55.13
77693;SHT31;66984;47.404;18.836;2023-02-28T17:55:50;6.42;55.14
77693;SHT31;66984;47.404;18.836;2023-02-28T17:56:52;6.40;55.31
77693;SHT31;66984;47.404;18.836;2023-02-28T17:57:55;6.40;55.45
77693;SHT31;66984;47.404;18.836;2023-02-28T17:58:58;6.37;55.42
77693;SHT31;66984;47.404;18.836;2023-02-28T18:00:00;6.37;55.32
77693;SHT31;66984;47.404;18.836;2023-02-28T18:01:08;6.35;55.30
77693;SHT31;66984;47.404;18.836;2023-02-28T18:02:12;6.35;55.57
77693;SHT31;66984;47.404;18.836;2023-02-28T18:03:15;6.38;55.52
77693;SHT31;66984;47.404;18.836;2023-02-28T18:04:18;6.35;55.39
77693;SHT31;66984;47.404;18.836;2023-02-28T18:05:21;6.34;55.62
77693;SHT31;66984;47.404;18.836;2023-02-28T18:06:26;6.38;55.63
77693;SHT31;66984;47.404;18.836;2023-02-28T18:07:30;6.40;55.71
77693;SHT31;66984;47.404;18.836;2023-02-28T18:08:34;6.38;55.91
77693;SHT31;66984;47.404;18.836;2023-02-28T18:09:37;6.38;55.87
77693;SHT31;66984;47.404;18.836;2023-02-28T18:10:40;6.37;55.85
77693;SHT31;66984;47.404;18.836;2023-02-28T18:11:43;6.41;55.81
77693;SHT31;66984;47.404;18.836;2023-02-28T18:12:51;6.41;56.01
77693;SHT31;66984;47.404;18.836;2023-02-28T18:13:54;6.41;56.06
77693;SHT31;66984;47.404;18.836;2023-02-28T18:15:00;6.44;55.94
77693;SHT31;66984;47.404;18.836;2023-02-28T18:16:03;6.44;55.94
77693;SHT31;66984;47.404;18.836;2023-02-28T18:17:06;6.48;55.76
77693;SHT31;66984;47.404;18.836;2023-02-28T18:18:09;6.48;55.60
77693;SHT31;66984;47.404;18.836;2023-02-28T18:19:13;6.52;55.62
77693;SHT31;66984;47.404;18.836;2023-02-28T18:20:19;6.52;55.70
77693;SHT31;66984;47.404;18.836;2023-02-28T18:21:21;6.51;55.85
77693;SHT31;66984;47.404;18.836;2023-02-28T18:22:24;6.51;55.80
77693;SHT31;66984;47.404;18.836;2023-02-28T18:23:27;6.52;55.64
77693;SHT31;66984;47.404;18.836;2023-02-28T18:24:29;6.54;55.73
77693;SHT31;66984;47.404;18.836;2023-02-28T18:25:32;6.56;55.86
77693;SHT31;66984;47.404;18.836;2023-02-28T18:26:36;6.58;55.62
77693;SHT31;66984;47.404;18.836;2023-02-28T18:27:39;6.58;55.67
77693;SHT31;66984;47.404;18.836;2023-02-28T18:28:59;6.59;55.58
77693;SHT31;66984;47.404;18.836;2023-02-28T18:30:03;6.54;55.63
77693;SHT31;66984;47.404;18.836;2023-02-28T18:31:07;6.55;55.55
77693;SHT31;66984;47.404;18.836;2023-02-28T18:32:10;6.55;55.59
77693;SHT31;66984;47.404;18.836;2023-02-28T18:33:13;6.58;55.56
77693;SHT31;66984;47.404;18.836;2023-02-28T18:34:16;6.59;55.55
77693;SHT31;66984;47.404;18.836;2023-02-28T18:35:22;6.62;55.37
77693;SHT31;66984;47.404;18.836;2023-02-28T18:36:46;6.62;55.26
77693;SHT31;66984;47.404;18.836;2023-02-28T18:37:49;6.64;55.40
77693;SHT31;66984;47.404;18.836;2023-02-28T18:38:52;6.67;55.41
77693;SHT31;66984;47.404;18.836;2023-02-28T18:39:55;6.67;55.35
77693;SHT31;66984;47.404;18.836;2023-02-28T18:41:00;6.69;55.18
77693;SHT31;66984;47.404;18.836;2023-02-28T18:42:03;6.68;55.16
77693;SHT31;66984;47.404;18.836;2023-02-28T18:43:07;6.67;55.26
77693;SHT31;66984;47.404;18.836;2023-02-28T18:44:10;6.71;55.26
77693;SHT31;66984;47.404;18.836;2023-02-28T18:45:21;6.68;55.31
77693;SHT31;66984;47.404;18.836;2023-02-28T18:46:24;6.67;55.31
77693;SHT31;66984;47.404;18.836;2023-02-28T18:47:26;6.68;55.23
77693;SHT31;66984;47.404;18.836;2023-02-28T18:48:29;6.72;55.20
77693;SHT31;66984;47.404;18.836;2023-02-28T18:49:32;6.75;55.17
77693;SHT31;66984;47.404;18.836;2023-02-28T18:50:37;6.81;55.14
77693;SHT31;66984;47.404;18.836;2023-02-28T18:51:40;6.83;55.21
77693;SHT31;66984;47.404;18.836;2023-02-28T18:52:46;6.85;55.03
77693;SHT31;66984;47.404;18.836;2023-02-28T18:53:49;6.88;54.93
77693;SHT31;66984;47.404;18.836;2023-02-28T18:54:52;6.89;54.92
77693;SHT31;66984;47.404;18.836;2023-02-28T18:55:59;6.86;54.98
77693;SHT31;66984;47.404;18.836;2023-02-28T18:57:02;6.93;54.91
77693;SHT31;66984;47.404;18.836;2023-02-28T18:58:04;6.97;54.78
77693;SHT31;66984;47.404;18.836;2023-02-28T18:59:07;6.93;54.79
77693;SHT31;66984;47.404;18.836;2023-02-28T19:00:14;6.96;54.94
77693;SHT31;66984;47.404;18.836;2023-02-28T19:01:22;7.00;55.20
77693;SHT31;66984;47.404;18.836;2023-02-28T19:02:25;7.02;55.20
77693;SHT31;66984;47.404;18.836;2023-02-28T19:03:28;7.02;55.15
77693;SHT31;66984;47.404;18.836;2023-02-28T19:04:31;7.03;54.91
77693;SHT31;66984;47.404;18.836;2023-02-28T19:05:35;7.02;54.88
77693;SHT31;66984;47.404;18.836;2023-02-28T19:06:38;7.04;55.01
77693;SHT31;66984;47.404;18.836;2023-02-28T19:07:41;7.10;55.01
77693;SHT31;66984;47.404;18.836;2023-02-28T19:08:44;7.09;55.25
77693;SHT31;66984;47.404;18.836;2023-02-28T19:09:47;7.06;55.09
77693;SHT31;66984;47.404;18.836;2023-02-28T19:10:49;7.06;55.11
77693;SHT31;66984;47.404;18.836;2023-02-28T19:11:52;7.10;55.01
77693;SHT31;66984;47.404;18.836;2023-02-28T19:12:55;7.07;54.92
77693;SHT31;66984;47.404;18.836;2023-02-28T19:13:57;7.12;54.73
77693;SHT31;66984;47.404;18.836;2023-02-28T19:15:02;7.14;55.42
77693;SHT31;66984;47.404;18.836;2023-02-28T19:16:06;7.13;55.92
77693;SHT31;66984;47.404;18.836;2023-02-28T19:17:09;7.13;56.43
77693;SHT31;66984;47.404;18.836;2023-02-28T19:18:14;7.17;56.25
77693;SHT31;66984;47.404;18.836;2023-02-28T19:19:16;7.19;55.85
77693;SHT31;66984;47.404;18.836;2023-02-28T19:20:19;7.19;55.53
77693;SHT31;66984;47.404;18.836;2023-02-28T19:21:22;7.21;55.12
77693;SHT31;66984;47.404;18.836;2023-02-28T19:22:26;7.20;54.92
77693;SHT31;66984;47.404;18.836;2023-02-28T19:23:30;7.23;54.78
77693;SHT31;66984;47.404;18.836;2023-02-28T19:24:33;7.23;54.51
77693;SHT31;66984;47.404;18.836;2023-02-28T19:25:40;7.20;54.48
77693;SHT31;66984;47.404;18.836;2023-02-28T19:26:43;7.24;54.55
77693;SHT31;66984;47.404;18.836;2023-02-28T19:27:46;7.23;54.74
77693;SHT31;66984;47.404;18.836;2023-02-28T19:28:49;7.21;54.80
77693;SHT31;66984;47.404;18.836;2023-02-28T19:29:52;7.23;54.67
77693;SHT31;66984;47.404;18.836;2023-02-28T19:30:55;7.20;54.66
77693;SHT31;66984;47.404;18.836;2023-02-28T19:31:58;7.20;54.56
77693;SHT31;66984;47.404;18.836;2023-02-28T19:33:01;7.24;54.53
77693;SHT31;66984;47.404;18.836;2023-02-28T19:34:03;7.20;54.56
77693;SHT31;66984;47.404;18.836;2023-02-28T19:35:06;7.20;54.59
77693;SHT31;66984;47.404;18.836;2023-02-28T19:36:11;7.21;54.89
77693;SHT31;66984;47.404;18.836;2023-02-28T19:37:14;7.20;54.89
77693;SHT31;66984;47.404;18.836;2023-02-28T19:38:16;7.21;55.12
77693;SHT31;66984;47.404;18.836;2023-02-28T19:39:19;7.24;54.70
77693;SHT31;66984;47.404;18.836;2023-02-28T19:40:22;7.21;54.59
77693;SHT31;66984;47.404;18.836;2023-02-28T19:41:25;7.20;54.80
77693;SHT31;66984;47.404;18.836;2023-02-28T19:42:28;7.21;55.11
77693;SHT31;66984;47.404;18.836;2023-02-28T19:43:35;7.21;55.17
77693;SHT31;66984;47.404;18.836;2023-02-28T19:44:38;7.23;55.15
77693;SHT31;66984;47.404;18.836;2023-02-28T19:45:41;7.23;55.13
77693;SHT31;66984;47.404;18.836;2023-02-28T19:46:44;7.23;55.23
77693;SHT31;66984;47.404;18.836;2023-02-28T19:47:46;7.26;55.07
77693;SHT31;66984;47.404;18.836;2023-02-28T19:48:52;7.26;54.92
77693;SHT31;66984;47.404;18.836;2023-02-28T19:49:56;7.23;54.71
77693;SHT31;66984;47.404;18.836;2023-02-28T19:51:02;7.27;54.60
77693;SHT31;66984;47.404;18.836;2023-02-28T19:52:05;7.26;54.69
77693;SHT31;66984;47.404;18.836;2023-02-28T19:53:17;7.27;54.74
77693;SHT31;66984;47.404;18.836;2023-02-28T19:54:20;7.24;54.60
77693;SHT31;66984;47.404;18.836;2023-02-28T19:55:23;7.24;54.53
77693;SHT31;66984;47.404;18.836;2023-02-28T19:56:25;7.27;54.53
77693;SHT31;66984;47.404;18.836;2023-02-28T19:57:29;7.27;54.70
77693;SHT31;66984;47.404;18.836;2023-02-28T19:58:32;7.26;54.80
77693;SHT31;66984;47.404;18.836;2023-02-28T19:59:35;7.24;54.72
77693;SHT31;66984;47.404;18.836;2023-02-28T20:00:40;7.24;54.69
77693;SHT31;66984;47.404;18.836;2023-02-28T20:01:43;7.27;55.05
77693;SHT31;66984;47.404;18.836;2023-02-28T20:02:46;7.27;55.15
77693;SHT31;66984;47.404;18.836;2023-02-28T20:03:49;7.27;55.26
77693;SHT31;66984;47.404;18.836;2023-02-28T20:04:52;7.27;55.22
77693;SHT31;66984;47.404;18.836;2023-02-28T20:06:04;7.28;55.12
77693;SHT31;66984;47.404;18.836;2023-02-28T20:07:08;7.26;55.13
77693;SHT31;66984;47.404;18.836;2023-02-28T20:08:12;7.28;55.25
77693;SHT31;66984;47.404;18.836;2023-02-28T20:09:15;7.30;55.31
77693;SHT31;66984;47.404;18.836;2023-02-28T20:10:18;7.28;55.37
77693;SHT31;66984;47.404;18.836;2023-02-28T20:11:20;7.26;55.37
77693;SHT31;66984;47.404;18.836;2023-02-28T20:12:24;7.27;55.36
77693;SHT31;66984;47.404;18.836;2023-02-28T20:13:28;7.28;55.14
77693;SHT31;66984;47.404;18.836;2023-02-28T20:14:32;7.28;55.08
77693;SHT31;66984;47.404;18.836;2023-02-28T20:15:36;7.28;55.09
77693;SHT31;66984;47.404;18.836;2023-02-28T20:16:39;7.24;55.03
77693;SHT31;66984;47.404;18.836;2023-02-28T20:17:42;7.23;54.98
77693;SHT31;66984;47.404;18.836;2023-02-28T20:18:51;7.20;55.06
77693;SHT31;66984;47.404;18.836;2023-02-28T20:19:53;7.24;55.12
77693;SHT31;66984;47.404;18.836;2023-02-28T20:20:57;7.21;55.51
77693;SHT31;66984;47.404;18.836;2023-02-28T20:21:59;7.20;55.76
77693;SHT31;66984;47.404;18.836;2023-02-28T20:23:04;7.20;55.70
77693;SHT31;66984;47.404;18.836;2023-02-28T20:24:06;7.19;55.88
77693;SHT31;66984;47.404;18.836;2023-02-28T20:25:09;7.20;55.81
77693;SHT31;66984;47.404;18.836;2023-02-28T20:26:13;7.21;55.89
77693;SHT31;66984;47.404;18.836;2023-02-28T20:27:16;7.21;55.85
77693;SHT31;66984;47.404;18.836;2023-02-28T20:28:19;7.19;56.05
77693;SHT31;66984;47.404;18.836;2023-02-28T20:29:22;7.17;56.10
77693;SHT31;66984;47.404;18.836;2023-02-28T20:30:28;7.19;56.02
77693;SHT31;66984;47.404;18.836;2023-02-28T20:31:31;7.19;56.08
77693;SHT31;66984;47.404;18.836;2023-02-28T20:32:34;7.20;56.01
77693;SHT31;66984;47.404;18.836;2023-02-28T20:33:41;7.19;55.80
77693;SHT31;66984;47.404;18.836;2023-02-28T20:34:47;7.19;55.91
77693;SHT31;66984;47.404;18.836;2023-02-28T20:35:57;7.19;55.96
77693;SHT31;66984;47.404;18.836;2023-02-28T20:37:00;7.19;56.17
77693;SHT31;66984;47.404;18.836;2023-02-28T20:38:02;7.17;56.19
77693;SHT31;66984;47.404;18.836;2023-02-28T20:39:05;7.17;56.02
77693;SHT31;66984;47.404;18.836;2023-02-28T20:40:08;7.16;55.78
77693;SHT31;66984;47.404;18.836;2023-02-28T20:41:12;7.14;55.80
77693;SHT31;66984;47.404;18.836;2023-02-28T20:42:15;7.16;55.75
77693;SHT31;66984;47.404;18.836;2023-02-28T20:43:17;7.14;55.66
77693;SHT31;66984;47.404;18.836;2023-02-28T20:44:20;7.12;55.68
77693;SHT31;66984;47.404;18.836;2023-02-28T20:45:23;7.12;55.94
77693;SHT31;66984;47.404;18.836;2023-02-28T20:46:26;7.14;56.48
77693;SHT31;66984;47.404;18.836;2023-02-28T20:47:29;7.13;56.48
77693;SHT31;66984;47.404;18.836;2023-02-28T20:48:33;7.13;56.33
77693;SHT31;66984;47.404;18.836;2023-02-28T20:49:39;7.10;56.44
77693;SHT31;66984;47.404;18.836;2023-02-28T20:50:50;7.14;56.60
77693;SHT31;66984;47.404;18.836;2023-02-28T20:51:53;7.13;56.66
77693;SHT31;66984;47.404;18.836;2023-02-28T20:52:56;7.10;56.81
77693;SHT31;66984;47.404;18.836;2023-02-28T20:53:58;7.10;56.77
77693;SHT31;66984;47.404;18.836;2023-02-28T20:55:02;7.14;56.67
77693;SHT31;66984;47.404;18.836;2023-02-28T20:56:08;7.16;56.55
77693;SHT31;66984;47.404;18.836;2023-02-28T20:57:11;7.19;56.37
77693;SHT31;66984;47.404;18.836;2023-02-28T20:58:14;7.17;56.33
77693;SHT31;66984;47.404;18.836;2023-02-28T20:59:16;7.21;56.35
77693;SHT31;66984;47.404;18.836;2023-02-28T21:00:22;7.19;56.47
77693;SHT31;66984;47.404;18.836;2023-02-28T21:01:28;7.17;56.77
77693;SHT31;66984;47.404;18.836;2023-02-28T21:02:35;7.17;56.94
77693;SHT31;66984;47.404;18.836;2023-02-28T21:03:38;7.16;56.75
77693;SHT31;66984;47.404;18.836;2023-02-28T21:04:41;7.17;56.60
77693;SHT31;66984;47.404;18.836;2023-02-28T21:05:44;7.14;56.81
77693;SHT31;66984;47.404;18.836;2023-02-28T21:06:47;7.16;57.10
77693;SHT31;66984;47.404;18.836;2023-02-28T21:07:50;7.13;57.21
77693;SHT31;66984;47.404;18.836;2023-02-28T21:08:52;7.12;57.29
77693;SHT31;66984;47.404;18.836;2023-02-28T21:09:55;7.07;57.08
77693;SHT31;66984;47.404;18.836;2023-02-28T21:10:58;7.06;57.18
77693;SHT31;66984;47.404;18.836;2023-02-28T21:12:01;7.03;57.35
77693;SHT31;66984;47.404;18.836;2023-02-28T21:13:03;7.06;57.67
77693;SHT31;66984;47.404;18.836;2023-02-28T21:14:10;7.06;57.89
77693;SHT31;66984;47.404;18.836;2023-02-28T21:15:14;7.03;58.85
77693;SHT31;66984;47.404;18.836;2023-02-28T21:16:19;7.06;58.83
77693;SHT31;66984;47.404;18.836;2023-02-28T21:17:23;7.07;58.77
77693;SHT31;66984;47.404;18.836;2023-02-28T21:18:25;7.06;58.72
77693;SHT31;66984;47.404;18.836;2023-02-28T21:19:28;7.06;58.56
77693;SHT31;66984;47.404;18.836;2023-02-28T21:20:31;7.06;59.26
77693;SHT31;66984;47.404;18.836;2023-02-28T21:21:38;7.07;58.81
77693;SHT31;66984;47.404;18.836;2023-02-28T21:22:41;7.04;58.24
77693;SHT31;66984;47.404;18.836;2023-02-28T21:23:44;7.07;58.37
77693;SHT31;66984;47.404;18.836;2023-02-28T21:24:48;7.03;58.57
77693;SHT31;66984;47.404;18.836;2023-02-28T21:25:50;7.03;58.66
77693;SHT31;66984;47.404;18.836;2023-02-28T21:26:54;7.03;58.65
77693;SHT31;66984;47.404;18.836;2023-02-28T21:27:59;7.06;58.56
77693;SHT31;66984;47.404;18.836;2023-02-28T21:29:02;7.02;58.35
77693;SHT31;66984;47.404;18.836;2023-02-28T21:30:05;7.00;58.10
77693;SHT31;66984;47.404;18.836;2023-02-28T21:31:12;7.03;57.92
77693;SHT31;66984;47.404;18.836;2023-02-28T21:32:15;7.00;57.90
77693;SHT31;66984;47.404;18.836;2023-02-28T21:33:18;6.99;57.89
77693;SHT31;66984;47.404;18.836;2023-02-28T21:34:22;7.00;57.87
77693;SHT31;66984;47.404;18.836;2023-02-28T21:35:25;6.95;57.74
77693;SHT31;66984;47.404;18.836;2023-02-28T21:36:29;6.97;57.92
77693;SHT31;66984;47.404;18.836;2023-02-28T21:37:36;6.92;58.04
77693;SHT31;66984;47.404;18.836;2023-02-28T21:38:41;6.92;58.12
77693;SHT31;66984;47.404;18.836;2023-02-28T21:39:44;6.93;58.56
77693;SHT31;66984;47.404;18.836;2023-02-28T21:40:47;6.96;58.66
77693;SHT31;66984;47.404;18.836;2023-02-28T21:41:53;6.96;58.50
77693;SHT31;66984;47.404;18.836;2023-02-28T21:42:56;6.93;58.64
77693;SHT31;66984;47.404;18.836;2023-02-28T21:43:58;6.91;58.83
77693;SHT31;66984;47.404;18.836;2023-02-28T21:45:01;6.91;58.98
77693;SHT31;66984;47.404;18.836;2023-02-28T21:46:08;6.95;59.15
77693;SHT31;66984;47.404;18.836;2023-02-28T21:47:10;6.97;59.07
77693;SHT31;66984;47.404;18.836;2023-02-28T21:48:14;6.97;58.84
77693;SHT31;66984;47.404;18.836;2023-02-28T21:49:17;6.96;58.53
77693;SHT31;66984;47.404;18.836;2023-02-28T21:50:20;7.00;58.58
77693;SHT31;66984;47.404;18.836;2023-02-28T21:51:28;6.99;58.45
77693;SHT31;66984;47.404;18.836;2023-02-28T21:52:32;6.99;58.31
77693;SHT31;66984;47.404;18.836;2023-02-28T21:53:36;6.97;58.47
77693;SHT31;66984;47.404;18.836;2023-02-28T21:54:39;6.96;58.65
77693;SHT31;66984;47.404;18.836;2023-02-28T21:55:42;6.92;58.98
77693;SHT31;66984;47.404;18.836;2023-02-28T21:56:45;6.93;59.03
77693;SHT31;66984;47.404;18.836;2023-02-28T21:57:49;6.95;58.99
77693;SHT31;66984;47.404;18.836;2023-02-28T21:58:52;6.95;58.80
77693;SHT31;66984;47.404;18.836;2023-02-28T22:00:02;6.96;58.51
77693;SHT31;66984;47.404;18.836;2023-02-28T22:01:15;6.97;58.23
77693;SHT31;66984;47.404;18.836;2023-02-28T22:02:18;6.97;58.18
77693;SHT31;66984;47.404;18.836;2023-02-28T22:03:21;6.99;58.40
77693;SHT31;66984;47.404;18.836;2023-02-28T22:04:24;6.99;58.52
77693;SHT31;66984;47.404;18.836;2023-02-28T22:05:28;6.95;58.58
77693;SHT31;66984;47.404;18.836;2023-02-28T22:06:33;6.96;58.59
77693;SHT31;66984;47.404;18.836;2023-02-28T22:07:36;6.99;58.48
77693;SHT31;66984;47.404;18.836;2023-02-28T22:08:45;6.95;58.74
77693;SHT31;66984;47.404;18.836;2023-02-28T22:09:48;6.96;58.81
77693;SHT31;66984;47.404;18.836;2023-02-28T22:10:51;6.96;58.71
77693;SHT31;66984;47.404;18.836;2023-02-28T22:11:55;6.97;58.76
77693;SHT31;66984;47.404;18.836;2023-02-28T22:12:58;7.02;58.75
77693;SHT31;66984;47.404;18.836;2023-02-28T22:14:03;7.02;58.69
77693;SHT31;66984;47.404;18.836;2023-02-28T22:15:08;7.00;58.87
77693;SHT31;66984;47.404;18.836;2023-02-28T22:16:13;7.00;58.80
77693;SHT31;66984;47.404;18.836;2023-02-28T22:17:16;6.97;59.22
77693;SHT31;66984;47.404;18.836;2023-02-28T22:18:19;6.96;59.28
77693;SHT31;66984;47.404;18.836;2023-02-28T22:19:22;6.95;59.18
77693;SHT31;66984;47.404;18.836;2023-02-28T22:20:25;6.92;59.37
77693;SHT31;66984;47.404;18.836;2023-02-28T22:21:28;6.89;59.21
77693;SHT31;66984;47.404;18.836;2023-02-28T22:22:30;6.91;59.40
77693;SHT31;66984;47.404;18.836;2023-02-28T22:23:34;6.91;59.46
77693;SHT31;66984;47.404;18.836;2023-02-28T22:24:37;6.89;59.38
77693;SHT31;66984;47.404;18.836;2023-02-28T22:25:40;6.88;59.36
77693;SHT31;66984;47.404;18.836;2023-02-28T22:26:43;6.88;59.32
77693;SHT31;66984;47.404;18.836;2023-02-28T22:27:45;6.86;59.25
77693;SHT31;66984;47.404;18.836;2023-02-28T22:28:49;6.86;59.21
77693;SHT31;66984;47.404;18.836;2023-02-28T22:29:54;6.82;59.22
77693;SHT31;66984;47.404;18.836;2023-02-28T22:30:58;6.81;59.21
77693;SHT31;66984;47.404;18.836;2023-02-28T22:32:01;6.82;59.54
77693;SHT31;66984;47.404;18.836;2023-02-28T22:33:04;6.79;59.60
77693;SHT31;66984;47.404;18.836;2023-02-28T22:34:09;6.81;59.09
77693;SHT31;66984;47.404;18.836;2023-02-28T22:35:12;6.79;59.01
77693;SHT31;66984;47.404;18.836;2023-02-28T22:36:17;6.81;59.25
77693;SHT31;66984;47.404;18.836;2023-02-28T22:37:20;6.83;58.92
77693;SHT31;66984;47.404;18.836;2023-02-28T22:38:22;6.83;58.54
77693;SHT31;66984;47.404;18.836;2023-02-28T22:39:25;6.81;58.25
77693;SHT31;66984;47.404;18.836;2023-02-28T22:40:28;6.78;58.26
77693;SHT31;66984;47.404;18.836;2023-02-28T22:41:30;6.75;58.38
77693;SHT31;66984;47.404;18.836;2023-02-28T22:42:33;6.76;58.51
77693;SHT31;66984;47.404;18.836;2023-02-28T22:43:41;6.73;58.86
77693;SHT31;66984;47.404;18.836;2023-02-28T22:44:44;6.75;59.29
77693;SHT31;66984;47.404;18.836;2023-02-28T22:45:48;6.76;59.51
77693;SHT31;66984;47.404;18.836;2023-02-28T22:46:52;6.78;58.90
77693;SHT31;66984;47.404;18.836;2023-02-28T22:47:55;6.78;58.76
77693;SHT31;66984;47.404;18.836;2023-02-28T22:48:59;6.79;58.44